Time;durP1;ratioP1;P1;durP2;ratioP2;P2;SDS_P1;SDS_P2;PMS_P1;PMS_P2;Temp;Humidity;BMP_temperature;BMP_pressure;BME280_temperature;BME280_humidity;BME280_pressure;Samples;Min_cycle;Max_cycle;Signal;HPM_P1;HPM_P2
2021/04/01 00:01:36;;;;;;;8.65;5.03;;;8.00;99.90;;;;;;4793113;29;20058;-80
2021/04/01 00:04:03;;;;;;;11.48;6.00;;;8.00;99.90;;;;;;4807411;29;20187;-80
2021/04/01 00:06:34;;;;;;;9.95;5.40;;;8.00;99.90;;;;;;4808634;29;20050;-80
2021/04/01 00:09:01;;;;;;;7.13;4.88;;;8.00;99.90;;;;;;4807723;29;20503;-81
2021/04/01 00:11:33;;;;;;;7.63;5.47;;;8.00;99.90;;;;;;4806100;29;20043;-80
2021/04/01 00:14:05;;;;;;;8.68;5.07;;;8.00;99.90;;;;;;4793014;29;20074;-80
2021/04/01 00:16:37;;;;;;;9.18;5.00;;;8.00;99.90;;;;;;4793658;29;20499;-81
2021/04/01 00:19:08;;;;;;;8.45;5.15;;;8.10;99.90;;;;;;4793549;29;20511;-80
2021/04/01 00:21:35;;;;;;;9.23;5.20;;;8.10;99.90;;;;;;4808086;29;20115;-81
2021/04/01 00:24:07;;;;;;;11.75;5.25;;;8.10;99.90;;;;;;4793263;29;20057;-80
2021/04/01 00:26:33;;;;;;;8.27;4.55;;;8.10;99.90;;;;;;4792683;29;20061;-80
2021/04/01 00:29:00;;;;;;;7.85;4.93;;;8.00;99.90;;;;;;4793089;29;20050;-80
2021/04/01 00:31:26;;;;;;;12.50;5.40;;;8.10;99.90;;;;;;4792677;29;20054;-80
2021/04/01 00:33:58;;;;;;;9.40;6.05;;;8.00;99.90;;;;;;4793309;29;20133;-81
2021/04/01 00:36:30;;;;;;;8.40;5.10;;;8.00;99.90;;;;;;4808101;29;20074;-81
2021/04/01 00:39:02;;;;;;;9.05;5.75;;;8.00;99.90;;;;;;4793180;29;20054;-81
2021/04/01 00:41:30;;;;;;;11.32;5.70;;;8.00;99.90;;;;;;4806934;29;20107;-80
2021/04/01 00:44:03;;;;;;;9.70;4.70;;;8.00;99.90;;;;;;4778637;29;20141;-81
2021/04/01 00:46:35;;;;;;;10.18;6.07;;;7.90;99.90;;;;;;4792882;29;20319;-81
2021/04/01 00:49:03;;;;;;;9.52;5.05;;;7.90;99.90;;;;;;4807200;29;20053;-81
2021/04/01 00:51:35;;;;;;;9.27;5.63;;;7.90;99.90;;;;;;4792681;29;20050;-81
2021/04/01 00:54:07;;;;;;;8.85;4.82;;;7.90;99.90;;;;;;4807140;29;20054;-81
2021/04/01 00:56:39;;;;;;;12.20;5.65;;;7.80;99.90;;;;;;4792956;29;20141;-80
2021/04/01 00:59:07;;;;;;;8.65;4.97;;;7.80;99.90;;;;;;4807056;29;20046;-80
2021/04/01 01:01:59;;;;;;;8.87;5.53;;;7.80;99.90;;;;;;4792571;29;20061;-80
2021/04/01 01:04:35;;;;;;;11.77;5.47;;;7.70;99.90;;;;;;4792369;29;20588;-80
2021/04/01 01:07:06;;;;;;;10.25;5.75;;;7.70;99.90;;;;;;4792353;29;20502;-80
2021/04/01 01:09:38;;;;;;;13.10;5.65;;;7.60;99.90;;;;;;4792143;29;20061;-81
2021/04/01 01:12:09;;;;;;;9.43;5.80;;;7.60;99.90;;;;;;4791913;29;20106;-81
2021/04/01 01:14:40;;;;;;;7.93;5.20;;;7.60;99.90;;;;;;4792297;29;20137;-80
2021/04/01 01:17:15;;;;;;;8.90;4.57;;;7.50;99.90;;;;;;4792458;29;20453;-80
2021/04/01 01:19:52;;;;;;;9.82;5.50;;;7.50;99.90;;;;;;4792224;29;20058;-81
2021/04/01 01:22:24;;;;;;;9.93;5.75;;;7.40;99.90;;;;;;4792247;29;20050;-80
2021/04/01 01:24:55;;;;;;;11.65;5.28;;;7.40;99.90;;;;;;4792302;29;20145;-80
2021/04/01 01:27:27;;;;;;;12.38;6.65;;;7.40;99.90;;;;;;4806475;29;20456;-80
2021/04/01 01:29:53;;;;;;;12.10;5.10;;;7.30;99.90;;;;;;4806143;29;20583;-80
2021/04/01 01:32:31;;;;;;;14.10;6.20;;;7.30;99.90;;;;;;4791824;29;20073;-81
2021/04/01 01:34:57;;;;;;;11.20;6.82;;;7.30;99.90;;;;;;4791484;29;20074;-80
2021/04/01 01:37:29;;;;;;;14.20;6.47;;;7.30;99.90;;;;;;4792290;29;20439;-81
2021/04/01 01:40:00;;;;;;;11.43;5.88;;;7.30;99.90;;;;;;4791816;29;20050;-81
2021/04/01 01:42:31;;;;;;;9.85;6.55;;;7.20;99.90;;;;;;4792918;29;20054;-81
2021/04/01 01:44:58;;;;;;;11.30;5.63;;;7.30;99.90;;;;;;4791454;29;20057;-81
2021/04/01 01:47:29;;;;;;;11.25;5.63;;;7.20;99.90;;;;;;4807227;29;20099;-81
2021/04/01 01:50:02;;;;;;;10.57;5.57;;;7.20;99.90;;;;;;4791794;29;20050;-81
2021/04/01 01:52:33;;;;;;;8.90;5.03;;;7.10;99.90;;;;;;4791867;29;20122;-80
2021/04/01 01:55:07;;;;;;;10.32;6.03;;;7.10;99.90;;;;;;4791824;29;20299;-81
2021/04/01 01:57:39;;;;;;;9.30;5.72;;;7.10;99.90;;;;;;4806150;29;20522;-81
2021/04/01 02:00:15;;;;;;;11.95;5.80;;;7.10;99.90;;;;;;4807099;29;20054;-80
2021/04/01 02:02:51;;;;;;;11.65;5.80;;;7.10;99.90;;;;;;4806830;29;20046;-80
2021/04/01 02:05:24;;;;;;;14.70;6.22;;;7.10;99.90;;;;;;4791817;29;20115;-81
2021/04/01 02:07:57;;;;;;;13.18;6.70;;;7.10;99.90;;;;;;4791598;29;20144;-81
2021/04/01 02:10:34;;;;;;;15.45;7.35;;;7.10;99.90;;;;;;4791382;29;20054;-80
2021/04/01 02:13:06;;;;;;;9.82;6.07;;;7.10;99.90;;;;;;4791668;29;20065;-81
2021/04/01 02:15:39;;;;;;;10.50;5.72;;;7.00;99.90;;;;;;4791587;29;20059;-80
2021/04/01 02:18:19;;;;;;;13.90;7.07;;;7.00;99.90;;;;;;4791546;29;20103;-80
2021/04/01 02:20:48;;;;;;;14.70;7.30;;;7.00;99.90;;;;;;4805933;29;20046;-80
2021/04/01 02:23:21;;;;;;;;;;;7.00;99.90;;;;;;4807230;29;20423;-81
2021/04/01 02:25:55;;;;;;;9.90;5.32;;;7.00;99.90;;;;;;4809252;29;20385;-81
2021/04/01 02:28:28;;;;;;;14.90;6.20;;;7.10;99.90;;;;;;4794957;29;20103;-80
2021/04/01 02:31:00;;;;;;;;;;;7.10;99.90;;;;;;4795061;29;20042;-81
2021/04/01 02:33:35;;;;;;;12.27;6.63;;;7.10;99.90;;;;;;4794667;29;20377;-81
2021/04/01 02:36:07;;;;;;;12.52;6.00;;;7.10;99.90;;;;;;4794622;29;20499;-80
2021/04/01 02:38:38;;;;;;;11.38;5.85;;;7.00;99.90;;;;;;4794684;29;20570;-81
2021/04/01 02:41:09;;;;;;;10.65;6.07;;;7.00;99.90;;;;;;4794487;29;20061;-81
2021/04/01 02:43:41;;;;;;;13.30;7.13;;;7.00;99.90;;;;;;4794764;29;20051;-80
2021/04/01 02:46:13;;;;;;;14.65;5.97;;;7.00;99.90;;;;;;4825652;29;20042;-81
2021/04/01 02:48:45;;;;;;;10.00;5.20;;;7.00;99.90;;;;;;4794385;29;20510;-80
2021/04/01 02:51:16;;;;;;;10.80;5.85;;;7.00;99.90;;;;;;4794390;29;20501;-80
2021/04/01 02:53:48;;;;;;;12.38;5.68;;;6.90;99.90;;;;;;4808811;29;20078;-80
2021/04/01 02:56:14;;;;;;;11.65;6.05;;;6.90;99.90;;;;;;4808863;29;20045;-81
2021/04/01 02:58:46;;;;;;;11.13;6.15;;;6.90;99.90;;;;;;4808641;29;20074;-81
2021/04/01 03:01:17;;;;;;;13.07;6.88;;;6.90;99.90;;;;;;4794303;29;20129;-80
2021/04/01 03:03:51;;;;;;;12.73;6.50;;;7.00;99.90;;;;;;4794233;29;20292;-80
2021/04/01 03:06:23;;;;;;;10.82;6.63;;;7.00;99.90;;;;;;4808542;29;20107;-80
2021/04/01 03:08:54;;;;;;;10.88;6.18;;;7.00;99.90;;;;;;4808972;29;20091;-81
2021/04/01 03:11:26;;;;;;;10.00;5.82;;;7.00;99.90;;;;;;4794218;29;20046;-81
2021/04/01 03:13:52;;;;;;;13.82;6.78;;;7.00;99.90;;;;;;4808461;29;20107;-80
2021/04/01 03:16:25;;;;;;;11.63;6.25;;;6.90;99.90;;;;;;4808454;29;20053;-80
2021/04/01 03:18:56;;;;;;;11.25;7.43;;;6.90;99.90;;;;;;4794039;29;20507;-81
2021/04/01 03:21:27;;;;;;;13.95;8.55;;;6.90;99.90;;;;;;4794035;29;20518;-81
2021/04/01 03:23:59;;;;;;;13.13;7.97;;;6.90;99.90;;;;;;4793837;29;20107;-80
2021/04/01 03:26:30;;;;;;;13.32;7.88;;;6.90;99.90;;;;;;4794231;29;20428;-80
2021/04/01 03:29:02;;;;;;;11.40;6.88;;;6.80;99.90;;;;;;4808924;29;20043;-81
2021/04/01 03:31:34;;;;;;;14.77;7.28;;;6.80;99.90;;;;;;4793872;29;20050;-81
2021/04/01 03:34:06;;;;;;;13.55;7.28;;;6.80;99.90;;;;;;4808046;29;20055;-81
2021/04/01 03:36:34;;;;;;;17.70;7.70;;;6.80;99.90;;;;;;4792951;29;20057;-81
2021/04/01 03:39:05;;;;;;;14.93;8.05;;;6.80;99.90;;;;;;4793566;29;20054;-81
2021/04/01 03:41:39;;;;;;;10.88;7.65;;;6.80;99.90;;;;;;4809294;29;20054;-81
2021/04/01 03:44:11;;;;;;;13.93;7.95;;;6.70;99.90;;;;;;4793707;29;20503;-80
2021/04/01 03:46:42;;;;;;;11.80;7.85;;;6.70;99.90;;;;;;4793908;29;20058;-81
2021/04/01 03:49:13;;;;;;;10.25;7.80;;;6.70;99.90;;;;;;4793148;29;20134;-80
2021/04/01 03:51:44;;;;;;;13.82;8.05;;;6.70;99.90;;;;;;4793176;29;20550;-80
2021/04/01 03:54:16;;;;;;;15.75;8.63;;;6.70;99.90;;;;;;4807448;29;20074;-81
2021/04/01 03:56:48;;;;;;;17.42;8.50;;;6.70;99.90;;;;;;4793148;29;20050;-80
2021/04/01 03:59:18;;;;;;;12.40;7.45;;;6.70;99.90;;;;;;4792345;29;20103;-81
2021/04/01 04:02:02;;;;;;;13.23;7.82;;;6.70;99.90;;;;;;4792961;29;20077;-80
2021/04/01 04:05:02;;;;;;;18.30;8.55;;;6.60;99.90;;;;;;4793158;29;20259;-81
2021/04/01 04:10:48;;;;;;;13.25;8.48;;;6.60;99.90;;;;;;4807089;29;20506;-80
2021/04/01 04:13:02;;;;;;;13.20;8.35;;;6.50;99.90;;;;;;4816017;29;20061;-81
2021/04/01 04:15:34;;;;;;;15.63;8.23;;;6.50;99.90;;;;;;4792936;29;20070;-80
2021/04/01 04:18:05;;;;;;;16.67;7.47;;;6.50;99.90;;;;;;4792851;29;20138;-80
2021/04/01 04:20:32;;;;;;;10.75;7.78;;;6.40;99.90;;;;;;4792269;29;20510;-79
2021/04/01 04:23:04;;;;;;;13.27;8.05;;;6.40;99.90;;;;;;4792924;29;20658;-81
2021/04/01 04:25:36;;;;;;;15.00;7.38;;;6.40;99.90;;;;;;4792718;29;20490;-80
2021/04/01 04:30:41;;;;;;;11.00;6.28;;;6.30;99.90;;;;;;4807017;29;20080;-80
2021/04/01 04:33:13;;;;;;;10.48;6.28;;;6.30;99.90;;;;;;4792839;29;20145;-80
2021/04/01 04:35:44;;;;;;;7.85;6.30;;;6.30;99.90;;;;;;4792549;29;20141;-80
2021/04/01 04:38:16;;;;;;;11.57;6.55;;;6.30;99.90;;;;;;4793491;29;20491;-81
2021/04/01 04:40:48;;;;;;;12.80;6.05;;;6.30;99.90;;;;;;4792363;29;20541;-80
2021/04/01 04:43:19;;;;;;;8.55;5.50;;;6.30;99.90;;;;;;4792877;29;20149;-80
2021/04/01 04:45:45;;;;;;;9.18;5.32;;;6.30;99.90;;;;;;4792247;29;20563;-80
2021/04/01 04:48:17;;;;;;;10.45;5.40;;;6.20;99.90;;;;;;4791802;29;20114;-80
2021/04/01 04:50:49;;;;;;;13.48;5.10;;;6.20;99.90;;;;;;4792636;29;20149;-80
2021/04/01 04:53:20;;;;;;;10.82;4.30;;;6.20;99.90;;;;;;4792259;29;20091;-80
2021/04/01 04:58:29;;;;;;;15.63;5.47;;;6.20;99.90;;;;;;4806560;29;20152;-78
2021/04/01 05:01:06;;;;;;;9.90;4.72;;;6.20;99.90;;;;;;4779440;29;20046;-79
2021/04/01 05:06:51;;;;;;;11.65;5.50;;;6.20;99.90;;;;;;4800240;29;20049;-79
2021/04/01 05:09:16;;;;;;;10.43;5.00;;;6.30;99.90;;;;;;4784402;29;20078;-79
2021/04/01 05:11:48;;;;;;;11.07;4.82;;;6.30;99.90;;;;;;4772435;29;20043;-79
2021/04/01 05:14:19;;;;;;;10.98;5.03;;;6.30;99.90;;;;;;4786536;29;20047;-79
2021/04/01 05:16:51;;;;;;;10.63;6.28;;;6.40;99.90;;;;;;4772306;29;20043;-79
2021/04/01 05:19:23;;;;;;;9.40;5.05;;;6.40;99.90;;;;;;4786809;29;20051;-79
2021/04/01 05:24:27;;;;;;;12.20;6.15;;;6.40;99.90;;;;;;4801765;29;20051;-79
2021/04/01 05:27:09;;;;;;;13.02;6.70;;;6.40;99.90;;;;;;4771884;29;20050;-79
2021/04/01 05:29:57;;;;;;;11.38;5.75;;;6.40;99.90;;;;;;4771542;29;20504;-79
2021/04/01 05:32:33;;;;;;;10.93;6.75;;;6.40;99.90;;;;;;4785790;29;20130;-78
2021/04/01 05:35:07;;;;;;;10.98;6.93;;;6.40;99.90;;;;;;4772144;29;20643;-79
2021/04/01 05:37:39;;;;;;;11.23;6.10;;;6.40;99.90;;;;;;4771986;29;20130;-79
2021/04/01 05:40:13;;;;;;;11.38;6.60;;;6.40;99.90;;;;;;4771690;29;20515;-79
2021/04/01 05:42:46;;;;;;;;;;;6.40;99.90;;;;;;4785005;29;20054;-79
2021/04/01 05:48:16;;;;;;;11.25;5.80;;;6.50;99.90;;;;;;4781008;29;20058;-78
2021/04/01 06:03:52;;;;;;;14.05;8.05;;;6.70;99.90;;;;;;4786982;29;20057;-79
2021/04/01 06:06:29;;;;;;;12.63;7.32;;;6.70;99.90;;;;;;4770413;29;20133;-80
2021/04/01 07:12:41;;;;;;;26.00;12.90;;;9.10;99.90;;;;;;4840089;24;20112;-80
2021/04/01 07:15:13;;;;;;;19.35;11.90;;;9.30;99.90;;;;;;4773214;30;20134;-80
2021/04/01 07:17:55;;;;;;;22.92;13.60;;;9.50;99.90;;;;;;4759279;30;20112;-80
2021/04/01 07:48:51;;;;;;;17.63;8.90;;;11.20;99.90;;;;;;4755581;30;20051;-80
2021/04/01 07:54:00;;;;;;;16.58;8.15;;;11.80;99.90;;;;;;4773544;30;20052;-81
2021/04/01 07:57:00;;;;;;;19.35;8.30;;;12.00;99.90;;;;;;4774598;30;20051;-81
2021/04/01 07:59:49;;;;;;;11.15;6.15;;;12.10;99.90;;;;;;4773286;30;20048;-81
2021/04/01 08:04:58;;;;;;;13.57;5.40;;;12.60;99.90;;;;;;4757639;30;20075;-81
2021/04/01 08:07:50;;;;;;;12.20;5.07;;;12.80;99.90;;;;;;4773738;30;20452;-81
2021/04/01 08:10:25;;;;;;;14.20;5.70;;;13.20;99.90;;;;;;4774507;30;20054;-82
2021/04/01 08:13:04;;;;;;;12.00;5.72;;;13.50;99.90;;;;;;4759512;30;20067;-81
2021/04/01 08:15:38;;;;;;;12.68;6.10;;;13.80;99.90;;;;;;4774615;30;20051;-81
2021/04/01 08:18:16;;;;;;;14.00;5.55;;;14.00;99.90;;;;;;4772901;30;20100;-80
2021/04/01 08:20:45;;;;;;;12.05;5.20;;;14.20;99.90;;;;;;4893803;24;20022;-79
2021/04/01 08:23:26;;;;;;;11.43;5.30;;;14.40;99.90;;;;;;4760270;30;20806;-80
2021/04/01 08:26:22;;;;;;;10.32;5.20;;;14.70;99.90;;;;;;4773519;30;20052;-80
2021/04/01 08:31:41;;;;;;;12.48;5.63;;;15.30;98.20;;;;;;4791590;29;20055;-81
2021/04/01 08:36:53;;;;;;;13.20;5.75;;;15.50;98.50;;;;;;4791890;30;20487;-81
2021/04/01 08:39:25;;;;;;;15.70;5.60;;;15.60;96.10;;;;;;4762089;30;20126;-81
2021/04/01 08:42:07;;;;;;;14.25;5.95;;;15.70;95.40;;;;;;4760954;30;20482;-80
2021/04/01 08:45:15;;;;;;;16.17;5.28;;;15.90;93.40;;;;;;4761749;30;20124;-80
2021/04/01 08:48:17;;;;;;;13.18;5.32;;;16.00;94.70;;;;;;4761233;30;20047;-79
2021/04/01 08:51:28;;;;;;;13.95;5.65;;;16.20;94.50;;;;;;4763459;30;20051;-79
2021/04/01 08:54:13;;;;;;;12.65;5.07;;;16.40;92.20;;;;;;4773755;30;20512;-78
2021/04/01 08:57:09;;;;;;;15.27;5.70;;;16.50;90.90;;;;;;4760225;30;20059;-79
2021/04/01 08:59:51;;;;;;;9.23;4.65;;;16.60;90.90;;;;;;4774248;30;20469;-79
2021/04/01 09:02:47;;;;;;;15.10;5.97;;;16.70;90.30;;;;;;4783201;29;20053;-79
2021/04/01 09:05:23;;;;;;;15.43;5.20;;;16.80;83.50;;;;;;4779513;29;20047;-79
2021/04/01 09:07:58;;;;;;;12.68;5.13;;;16.90;85.20;;;;;;4785765;30;20146;-81
2021/04/01 09:14:31;;;;;;;11.45;5.70;;;17.10;83.60;;;;;;4900794;24;20088;-79
2021/04/01 09:17:13;;;;;;;8.35;4.30;;;17.20;79.30;;;;;;4761817;30;20055;-79
2021/04/01 09:19:49;;;;;;;15.13;5.75;;;17.30;81.20;;;;;;4760960;30;20562;-79
2021/04/01 09:22:29;;;;;;;11.43;5.15;;;17.40;80.40;;;;;;4774865;30;20051;-78
2021/04/01 09:25:05;;;;;;;16.00;5.57;;;17.50;77.40;;;;;;4760156;30;20135;-78
2021/04/01 09:27:53;;;;;;;15.35;5.38;;;17.60;74.30;;;;;;4772831;30;20055;-78
2021/04/01 09:30:40;;;;;;;12.30;5.28;;;17.70;73.80;;;;;;4759153;29;20047;-79
2021/04/01 09:33:29;;;;;;;15.18;4.85;;;17.80;74.20;;;;;;4759527;30;20057;-79
2021/04/01 09:36:14;;;;;;;12.73;5.63;;;18.00;77.30;;;;;;4753466;30;20053;-79
2021/04/01 09:38:49;;;;;;;15.90;5.63;;;18.10;71.90;;;;;;4772396;30;20050;-79
2021/04/01 09:41:33;;;;;;;11.43;5.45;;;18.20;71.30;;;;;;4771807;30;20047;-79
2021/04/01 09:44:06;;;;;;;11.98;5.53;;;18.40;71.60;;;;;;4772834;30;20126;-81
2021/04/01 09:46:35;;;;;;;13.40;5.47;;;18.50;71.80;;;;;;4757052;30;20044;-80
2021/04/01 09:49:09;;;;;;;;;;;18.40;71.00;;;;;;4771517;29;20619;-79
2021/04/01 09:51:53;;;;;;;10.10;5.60;;;18.50;70.10;;;;;;4805906;29;19925;-79
2021/04/01 09:54:26;;;;;;;12.25;6.10;;;18.50;69.70;;;;;;4790651;29;20051;-80
2021/04/01 09:56:59;;;;;;;13.77;5.30;;;18.60;68.50;;;;;;4775690;29;20053;-80
2021/04/01 09:59:52;;;;;;;12.15;5.57;;;18.70;68.70;;;;;;4775529;29;20579;-80
2021/04/01 10:02:29;;;;;;;15.95;6.22;;;18.80;69.90;;;;;;4779919;29;20080;-80
2021/04/01 10:05:04;;;;;;;12.82;5.53;;;18.90;68.20;;;;;;4771759;30;20055;-79
2021/04/01 10:07:37;;;;;;;13.57;5.68;;;19.10;69.50;;;;;;4770298;30;20057;-80
2021/04/01 10:10:05;;;;;;;11.50;5.70;;;19.20;66.20;;;;;;4762575;29;20073;-82
2021/04/01 10:19:57;;;;;;;17.60;6.95;;;19.60;64.20;;;;;;5307292;24;20146;-82
2021/04/01 10:22:39;;;;;;;17.65;7.50;;;19.70;61.70;;;;;;4772113;30;20134;-81
2021/04/01 10:29:22;;;;;;;17.10;6.85;;;19.90;59.80;;;;;;4758167;30;20050;-82
2021/04/01 10:34:54;;;;;;;14.25;6.10;;;19.90;59.00;;;;;;4818102;24;20141;-80
2021/04/01 10:38:19;;;;;;;12.07;6.65;;;20.10;58.50;;;;;;4774831;29;20137;-80
2021/04/01 10:40:49;;;;;;;13.32;6.85;;;20.20;58.50;;;;;;4756938;30;20523;-80
2021/04/01 10:43:21;;;;;;;18.38;7.38;;;20.30;57.90;;;;;;4763599;30;20052;-82
2021/04/01 10:45:53;;;;;;;12.75;6.60;;;20.40;55.70;;;;;;4775574;30;20043;-80
2021/04/01 10:48:46;;;;;;;13.30;6.72;;;20.40;56.40;;;;;;4794654;29;20039;-81
2021/04/01 10:51:16;;;;;;;14.25;6.13;;;20.50;55.70;;;;;;4795386;29;20055;-81
2021/04/01 10:53:49;;;;;;;16.52;6.20;;;20.50;55.20;;;;;;4780826;29;20051;-81
2021/04/01 10:56:16;;;;;;;14.23;7.13;;;20.60;58.20;;;;;;4780791;29;20047;-80
2021/04/01 10:58:58;;;;;;;13.13;7.00;;;20.80;58.20;;;;;;4781256;29;20051;-80
2021/04/01 11:01:43;;;;;;;13.55;6.88;;;20.90;53.40;;;;;;4796986;29;20461;-79
2021/04/01 11:04:16;;;;;;;15.43;6.32;;;21.00;56.30;;;;;;4797544;29;20165;-80
2021/04/01 11:06:49;;;;;;;15.27;7.03;;;21.20;54.00;;;;;;4780553;29;20142;-81
2021/04/01 11:09:25;;;;;;;13.80;6.25;;;21.20;52.10;;;;;;4780561;29;20054;-81
2021/04/01 11:12:16;;;;;;;15.90;7.33;;;21.20;53.10;;;;;;5114806;24;22032;-80
2021/04/01 11:15:05;;;;;;;12.40;6.97;;;21.30;52.40;;;;;;4765453;30;20052;-80
2021/04/01 11:17:43;;;;;;;15.68;7.85;;;21.20;51.90;;;;;;4759291;30;20467;-80
2021/04/01 11:20:12;;;;;;;14.52;7.40;;;21.30;53.10;;;;;;4755629;30;20052;-80
2021/04/01 11:23:06;;;;;;;11.43;5.55;;;21.30;51.40;;;;;;4738581;30;20053;-80
2021/04/01 11:25:49;;;;;;;16.02;7.13;;;21.30;49.50;;;;;;4724453;30;20452;-78
2021/04/01 11:28:44;;;;;;;10.77;7.10;;;21.40;49.30;;;;;;4724375;30;20052;-78
2021/04/01 11:31:22;;;;;;;19.35;7.95;;;21.50;49.10;;;;;;4723814;30;20052;-79
2021/04/01 11:33:56;;;;;;;14.07;6.78;;;21.50;49.70;;;;;;4738309;30;20390;-79
2021/04/01 11:36:32;;;;;;;11.75;6.22;;;21.50;47.80;;;;;;4738374;30;20052;-79
2021/04/01 11:39:02;;;;;;;15.45;7.32;;;21.50;48.10;;;;;;4738524;30;20059;-79
2021/04/01 11:41:31;;;;;;;18.23;8.10;;;21.50;47.90;;;;;;4738052;30;20122;-80
2021/04/01 11:43:58;;;;;;;12.88;7.85;;;21.50;46.90;;;;;;4738245;30;20101;-79
2021/04/01 11:46:31;;;;;;;14.23;7.63;;;21.50;46.90;;;;;;4730221;30;20067;-80
2021/04/01 11:49:03;;;;;;;17.00;8.48;;;21.30;46.50;;;;;;4742902;30;20052;-80
2021/04/01 11:51:33;;;;;;;16.60;8.15;;;21.30;49.50;;;;;;4729262;30;20074;-80
2021/04/01 11:54:02;;;;;;;13.40;7.63;;;21.30;47.80;;;;;;4728730;30;20052;-81
2021/04/01 11:56:52;;;;;;;12.80;8.05;;;21.30;49.30;;;;;;4729459;30;20058;-81
2021/04/01 11:59:26;;;;;;;17.75;8.00;;;21.40;49.40;;;;;;4744508;30;20082;-81
2021/04/01 12:02:06;;;;;;;12.32;7.53;;;21.60;49.00;;;;;;4837636;24;20060;-81
2021/04/01 12:04:36;;;;;;;16.73;7.95;;;21.70;47.60;;;;;;4781251;30;20048;-79
2021/04/01 12:07:05;;;;;;;12.43;7.32;;;21.80;46.70;;;;;;4781650;30;20520;-80
2021/04/01 12:09:33;;;;;;;16.52;8.02;;;21.90;46.70;;;;;;4793089;29;20511;-79
2021/04/01 12:12:05;;;;;;;11.60;6.68;;;22.00;45.20;;;;;;4773092;30;20051;-80
2021/04/01 12:14:39;;;;;;;13.93;7.55;;;22.10;45.00;;;;;;4773078;30;20055;-80
2021/04/01 12:17:07;;;;;;;14.18;7.57;;;22.10;44.90;;;;;;4772600;30;20056;-80
2021/04/01 12:19:39;;;;;;;;;;;22.10;45.00;;;;;;4759057;30;20131;-79
2021/04/01 12:22:13;;;;;;;13.43;6.72;;;22.00;44.70;;;;;;4772390;30;19925;-79
2021/04/01 12:24:41;;;;;;;15.48;7.90;;;22.00;45.10;;;;;;4757947;30;20063;-80
2021/04/01 12:27:13;;;;;;;14.70;7.45;;;22.10;45.80;;;;;;4773261;30;20067;-80
2021/04/01 12:29:47;;;;;;;11.88;7.60;;;22.10;45.20;;;;;;4772561;30;20051;-79
2021/04/01 12:32:34;;;;;;;11.50;5.47;;;22.20;46.40;;;;;;4758329;30;20051;-81
2021/04/01 12:35:12;;;;;;;12.52;5.68;;;22.30;44.80;;;;;;4772826;30;20457;-81
2021/04/01 12:37:58;;;;;;;14.75;7.70;;;22.40;45.70;;;;;;4779910;29;20138;-82
2021/04/01 12:43:51;;;;;;;12.50;6.00;;;22.50;43.90;;;;;;4903263;24;20065;-80
2021/04/01 12:46:35;;;;;;;11.23;6.22;;;22.50;44.70;;;;;;4758602;30;20448;-79
2021/04/01 12:49:10;;;;;;;13.55;8.82;;;22.50;43.90;;;;;;4758364;30;20051;-82
2021/04/01 12:55:06;;;;;;;14.10;7.30;;;22.40;44.10;;;;;;4787164;30;20062;-80
2021/04/01 12:57:43;;;;;;;13.05;9.68;;;22.50;45.00;;;;;;4773110;30;20512;-80
2021/04/01 13:00:11;;;;;;;12.77;6.75;;;22.70;46.50;;;;;;4772453;29;20530;-79
2021/04/01 13:02:43;;;;;;;;;;;22.70;44.50;;;;;;4773561;30;20047;-80
2021/04/01 13:05:18;;;;;;;21.45;14.15;;;22.80;43.80;;;;;;4773035;30;20394;-79
2021/04/01 13:13:20;;;;;;;7.70;4.38;;;22.80;44.00;;;;;;5072467;24;20055;-81
2021/04/01 13:16:47;;;;;;;14.90;5.70;;;22.90;43.30;;;;;;4773306;30;20435;-82
2021/04/01 13:19:14;;;;;;;17.42;11.70;;;22.90;42.50;;;;;;4802871;29;20125;-82
2021/04/01 13:27:11;;;;;;;6.03;4.13;;;22.60;44.20;;;;;;4807477;29;20074;-80
2021/04/01 13:29:50;;;;;;;9.05;4.55;;;22.40;44.50;;;;;;4789988;29;20043;-80
2021/04/01 13:32:34;;;;;;;10.45;5.30;;;22.30;45.10;;;;;;4777399;29;20055;-77
2021/04/01 13:35:13;;;;;;;11.60;5.78;;;22.30;46.30;;;;;;4786085;29;20049;-78
2021/04/01 13:38:21;;;;;;;10.02;5.00;;;22.40;44.50;;;;;;4775833;29;20129;-78
2021/04/01 13:40:44;;;;;;;8.52;5.18;;;22.30;45.50;;;;;;4788596;29;20469;-77
2021/04/01 13:43:21;;;;;;;8.10;3.95;;;22.30;45.90;;;;;;4800720;29;20103;-78
2021/04/01 13:45:52;;;;;;;10.95;4.32;;;22.40;46.20;;;;;;4804098;29;20149;-77
2021/04/01 13:48:27;;;;;;;9.93;4.88;;;22.50;45.90;;;;;;4804428;29;20491;-77
2021/04/01 13:51:07;;;;;;;9.90;4.40;;;22.60;44.80;;;;;;4803674;29;20070;-77
2021/04/01 13:56:32;;;;;;;6.80;4.50;;;22.80;44.70;;;;;;4798458;29;20049;-77
2021/04/01 13:59:53;;;;;;;14.77;10.05;;;22.90;45.70;;;;;;4785539;29;20085;-77
2021/04/01 14:13:30;;;;;;;9.13;4.00;;;22.90;45.70;;;;;;4786393;29;20504;-79
2021/04/01 14:16:02;;;;;;;6.82;4.18;;;22.70;45.10;;;;;;4796364;29;20296;-79
2021/04/01 14:18:52;;;;;;;8.40;4.13;;;22.60;46.00;;;;;;4790475;29;20050;-81
2021/04/01 14:21:23;;;;;;;11.27;4.43;;;22.50;46.00;;;;;;4772585;30;20043;-81
2021/04/01 14:23:53;;;;;;;10.18;4.72;;;22.40;46.80;;;;;;4774633;30;20068;-84
2021/04/01 14:26:33;;;;;;;5.97;5.15;;;22.20;46.50;;;;;;4785237;29;20061;-78
2021/04/01 14:28:59;;;;;;;8.43;4.80;;;22.10;47.40;;;;;;4791327;30;20075;-78
2021/04/01 14:31:34;;;;;;;11.65;5.30;;;22.10;48.60;;;;;;4790452;30;20415;-78
2021/04/01 14:34:02;;;;;;;11.50;5.60;;;22.20;49.20;;;;;;4775914;30;20075;-80
2021/04/01 14:36:34;;;;;;;;;;;22.40;48.40;;;;;;4758435;30;20052;-80
2021/04/01 14:39:06;;;;;;;7.03;4.72;;;22.60;49.70;;;;;;4757982;30;19925;-80
2021/04/01 14:41:44;;;;;;;8.20;4.20;;;22.50;47.60;;;;;;4757704;30;20063;-80
2021/04/01 14:44:19;;;;;;;8.73;4.40;;;22.30;47.20;;;;;;4772182;30;20062;-80
2021/04/01 14:46:46;;;;;;;11.75;4.60;;;22.20;48.50;;;;;;4771925;30;20047;-80
2021/04/01 14:49:18;;;;;;;8.73;4.05;;;22.00;48.30;;;;;;4757426;30;20056;-80
2021/04/01 14:51:46;;;;;;;9.48;5.03;;;21.90;49.30;;;;;;4771471;29;20049;-80
2021/04/01 14:54:24;;;;;;;11.63;6.65;;;21.80;49.90;;;;;;4772334;30;20051;-80
2021/04/01 14:57:05;;;;;;;11.68;4.90;;;21.70;49.80;;;;;;4804665;29;20435;-80
2021/04/01 14:59:37;;;;;;;9.25;6.15;;;21.80;49.80;;;;;;4794258;29;20054;-80
2021/04/01 15:02:12;;;;;;;8.13;4.95;;;21.80;47.70;;;;;;4807716;29;20070;-80
2021/04/01 15:04:39;;;;;;;8.68;5.32;;;21.70;48.30;;;;;;4792648;29;20062;-80
2021/04/01 15:07:08;;;;;;;12.13;5.45;;;21.70;49.00;;;;;;4792451;29;20054;-80
2021/04/01 15:09:42;;;;;;;7.05;4.43;;;21.60;49.90;;;;;;4807989;29;20046;-80
2021/04/01 15:15:02;;;;;;;5.28;3.15;;;21.30;50.10;;;;;;4844719;24;20061;-80
2021/04/01 15:17:37;;;;;;;21.17;18.35;;;21.10;52.50;;;;;;4774633;30;20085;-80
2021/04/01 15:20:08;;;;;;;4.53;3.42;;;21.00;53.10;;;;;;4774103;30;20048;-80
2021/04/01 15:22:35;;;;;;;4.78;3.00;;;20.80;53.60;;;;;;4756333;30;20572;-80
2021/04/01 15:25:04;;;;;;;6.50;3.30;;;20.70;54.80;;;;;;4772237;30;20050;-80
2021/04/01 15:27:41;;;;;;;4.93;3.10;;;20.50;56.50;;;;;;4759008;30;20108;-80
2021/04/01 15:33:09;;;;;;;8.00;3.50;;;20.10;62.50;;;;;;5232290;24;20138;-79
2021/04/01 15:35:42;;;;;;;5.22;2.88;;;19.90;67.70;;;;;;4760887;30;20055;-80
2021/04/01 15:38:11;;;;;;;5.80;3.55;;;19.70;76.60;;;;;;4769089;30;20063;-82
2021/04/01 15:46:41;;;;;;;5.88;2.83;;;19.00;96.90;;;;;;5545675;24;20113;-81
2021/04/01 15:49:16;;;;;;;6.10;2.78;;;18.90;98.70;;;;;;4764580;30;20063;-81
2021/04/01 15:51:45;;;;;;;9.23;4.40;;;18.80;99.50;;;;;;4762934;30;20048;-80
2021/04/01 15:54:17;;;;;;;7.95;3.03;;;18.70;93.90;;;;;;4777477;30;20052;-81
2021/04/01 15:56:49;;;;;;;12.65;3.50;;;18.70;89.00;;;;;;4761761;30;20597;-80
2021/04/01 15:59:15;;;;;;;8.38;2.75;;;18.80;87.80;;;;;;4762411;30;20047;-80
2021/04/01 16:05:05;;;;;;;22.67;13.60;;;18.90;84.10;;;;;;5850550;24;20029;-81
2021/04/01 16:33:20;;;;;;;4.72;3.33;;;18.80;80.50;;;;;;5892254;24;20156;31
2021/04/01 16:35:48;;;;;;;7.72;3.88;;;18.70;83.90;;;;;;4775842;30;20059;-81
2021/04/01 16:38:16;;;;;;;5.53;3.03;;;18.60;83.60;;;;;;4776537;30;20461;-82
2021/04/01 16:43:47;;;;;;;9.85;3.00;;;18.50;84.90;;;;;;4992290;24;20299;-81
2021/04/01 16:46:14;;;;;;;7.30;2.70;;;18.40;91.60;;;;;;4774048;30;20512;-81
2021/04/01 16:48:41;;;;;;;9.65;3.50;;;18.20;97.40;;;;;;4773281;30;20115;-81
2021/04/01 16:51:08;;;;;;;8.38;3.67;;;17.90;95.60;;;;;;4755317;30;20462;-81
2021/04/01 16:53:42;;;;;;;5.75;3.70;;;17.80;91.40;;;;;;4755446;30;20132;-81
2021/04/01 16:56:15;;;;;;;5.90;3.83;;;17.80;90.30;;;;;;4786401;30;20415;-80
2021/04/01 16:58:45;;;;;;;8.20;3.63;;;17.90;84.40;;;;;;4788487;30;20397;-81
2021/04/01 17:07:32;;;;;;;9.65;4.22;;;17.80;88.70;;;;;;4806557;30;20051;-80
2021/04/01 18:34:57;;;;;;;8.15;3.97;;;14.50;99.90;;;;;;4794499;29;20112;-80
2021/04/01 18:37:40;;;;;;;7.60;4.17;;;14.50;99.90;;;;;;4790642;29;20124;-81
2021/04/01 18:40:18;;;;;;;6.28;4.15;;;14.40;99.90;;;;;;4790695;29;20137;-77
2021/04/01 18:42:52;;;;;;;8.70;5.05;;;14.30;99.90;;;;;;4778452;29;20435;-80